Edmundston, Canada
Current Conditions -  °F | °C
As of 8:53 AM on Thursday 27 Nov 2014 (Local Time) from KFVE Reporting Station
Light Snow Light Snow  
Wind Chill:   Ceiling: 1600
Heat Index: 20°   Visibility: 0.75mi
Dew Point: 18°   Wind: 15mph
Humidity: 92%   Direction: 340°NNW
Pressure: 29.8"   Gusts: NA
Location:  47.37°N, 68.33°W
Report Text: KFVE 271253Z AUTO 34013KT 3/4SM -SN BR FEW008 OVC016 M07/M08 A2980 RMK AO2 SLP103 P0000 T10671078
Loading
Personal Weather Stations






























Interactive Weather Map New forecast layout! Learn more

10-Day Weather Forecast

Advertisements
Track Severe Weather on mobile